sensor_id;sensor_type;location;lat;lon;timestamp;pressure;altitude;pressure_sealevel;temperature;humidity
6829;BME280;17930;48.592;8.868;2024-03-23T00:51:51;96100.66;;;7.55;100.00
6829;BME280;17930;48.592;8.868;2024-03-23T00:54:16;96094.78;;;7.78;100.00
6829;BME280;17930;48.592;8.868;2024-03-23T00:56:43;96089.94;;;8.05;100.00
6829;BME280;17930;48.592;8.868;2024-03-23T00:59:10;96078.84;;;7.94;100.00
6829;BME280;17930;48.592;8.868;2024-03-23T01:01:37;96071.34;;;7.88;100.00
6829;BME280;17930;48.592;8.868;2024-03-23T01:04:03;96065.75;;;7.76;100.00
6829;BME280;17930;48.592;8.868;2024-03-23T01:06:29;96075.66;;;7.69;100.00
6829;BME280;17930;48.592;8.868;2024-03-23T01:08:57;96065.81;;;7.66;100.00
6829;BME280;17930;48.592;8.868;2024-03-23T01:11:23;96069.50;;;7.60;100.00
6829;BME280;17930;48.592;8.868;2024-03-23T01:13:49;96052.78;;;7.71;100.00
6829;BME280;17930;48.592;8.868;2024-03-23T01:16:16;96055.03;;;7.82;100.00
6829;BME280;17930;48.592;8.868;2024-03-23T01:18:41;96065.03;;;8.04;100.00
6829;BME280;17930;48.592;8.868;2024-03-23T01:21:08;96056.91;;;8.10;100.00
6829;BME280;17930;48.592;8.868;2024-03-23T01:23:33;96052.34;;;7.97;100.00
6829;BME280;17930;48.592;8.868;2024-03-23T01:26:01;96055.84;;;7.83;100.00
6829;BME280;17930;48.592;8.868;2024-03-23T01:28:27;96049.16;;;7.72;100.00
6829;BME280;17930;48.592;8.868;2024-03-23T01:30:54;96052.09;;;7.94;100.00
6829;BME280;17930;48.592;8.868;2024-03-23T01:33:20;96049.09;;;7.82;100.00
6829;BME280;17930;48.592;8.868;2024-03-23T01:35:47;96041.00;;;8.21;100.00
6829;BME280;17930;48.592;8.868;2024-03-23T01:38:13;96031.22;;;8.14;100.00
6829;BME280;17930;48.592;8.868;2024-03-23T01:40:39;96040.03;;;8.13;100.00
6829;BME280;17930;48.592;8.868;2024-03-23T01:43:07;96031.78;;;8.01;100.00
6829;BME280;17930;48.592;8.868;2024-03-23T01:45:34;96026.28;;;7.79;100.00
6829;BME280;17930;48.592;8.868;2024-03-23T01:48:01;96018.69;;;7.82;100.00
6829;BME280;17930;48.592;8.868;2024-03-23T01:50:28;96017.00;;;7.68;100.00
6829;BME280;17930;48.592;8.868;2024-03-23T01:52:56;96007.72;;;7.62;100.00
6829;BME280;17930;48.592;8.868;2024-03-23T01:55:24;96013.72;;;7.58;100.00
6829;BME280;17930;48.592;8.868;2024-03-23T01:57:50;96009.75;;;7.70;100.00
6829;BME280;17930;48.592;8.868;2024-03-23T02:00:19;96010.28;;;7.67;100.00
6829;BME280;17930;48.592;8.868;2024-03-23T02:02:45;96003.53;;;7.66;100.00
6829;BME280;17930;48.592;8.868;2024-03-23T02:05:12;96004.94;;;7.87;100.00
6829;BME280;17930;48.592;8.868;2024-03-23T02:07:38;95992.38;;;7.94;100.00
6829;BME280;17930;48.592;8.868;2024-03-23T02:10:06;95988.16;;;8.03;100.00
6829;BME280;17930;48.592;8.868;2024-03-23T02:12:32;95993.22;;;8.17;100.00
6829;BME280;17930;48.592;8.868;2024-03-23T02:14:59;95978.25;;;8.10;100.00
6829;BME280;17930;48.592;8.868;2024-03-23T02:17:27;95993.41;;;7.98;100.00
6829;BME280;17930;48.592;8.868;2024-03-23T02:19:54;95982.16;;;7.79;100.00
6829;BME280;17930;48.592;8.868;2024-03-23T02:22:20;95984.56;;;7.70;100.00
6829;BME280;17930;48.592;8.868;2024-03-23T02:24:48;95971.03;;;8.02;100.00
6829;BME280;17930;48.592;8.868;2024-03-23T02:27:14;95966.03;;;7.82;100.00
6829;BME280;17930;48.592;8.868;2024-03-23T02:29:41;95973.56;;;7.50;100.00
6829;BME280;17930;48.592;8.868;2024-03-23T02:32:06;95975.69;;;7.43;100.00
6829;BME280;17930;48.592;8.868;2024-03-23T02:34:34;95975.72;;;7.38;100.00
6829;BME280;17930;48.592;8.868;2024-03-23T02:37:00;95977.16;;;7.54;100.00
6829;BME280;17930;48.592;8.868;2024-03-23T02:39:27;95973.59;;;7.45;100.00
6829;BME280;17930;48.592;8.868;2024-03-23T02:41:54;95980.06;;;7.48;100.00
6829;BME280;17930;48.592;8.868;2024-03-23T02:44:20;95974.69;;;7.34;100.00
6829;BME280;17930;48.592;8.868;2024-03-23T02:46:46;95970.06;;;7.31;100.00
6829;BME280;17930;48.592;8.868;2024-03-23T02:49:13;95967.94;;;7.38;100.00
6829;BME280;17930;48.592;8.868;2024-03-23T02:51:39;95965.66;;;7.32;100.00
6829;BME280;17930;48.592;8.868;2024-03-23T02:54:06;95964.66;;;7.28;100.00
6829;BME280;17930;48.592;8.868;2024-03-23T02:56:32;95957.81;;;7.42;100.00
6829;BME280;17930;48.592;8.868;2024-03-23T02:59:00;95964.09;;;7.31;100.00
6829;BME280;17930;48.592;8.868;2024-03-23T03:01:26;95969.59;;;7.24;100.00
6829;BME280;17930;48.592;8.868;2024-03-23T03:03:53;95966.56;;;7.13;100.00
6829;BME280;17930;48.592;8.868;2024-03-23T03:06:24;95979.03;;;7.11;100.00
6829;BME280;17930;48.592;8.868;2024-03-23T03:08:51;95963.22;;;7.07;100.00
6829;BME280;17930;48.592;8.868;2024-03-23T03:11:18;95969.72;;;7.05;100.00
6829;BME280;17930;48.592;8.868;2024-03-23T03:13:44;95971.28;;;7.06;100.00
6829;BME280;17930;48.592;8.868;2024-03-23T03:16:11;95958.84;;;6.98;100.00
6829;BME280;17930;48.592;8.868;2024-03-23T03:18:38;95964.56;;;7.00;100.00
6829;BME280;17930;48.592;8.868;2024-03-23T03:21:05;95958.03;;;7.07;100.00
6829;BME280;17930;48.592;8.868;2024-03-23T03:23:36;95952.97;;;6.87;100.00
6829;BME280;17930;48.592;8.868;2024-03-23T03:26:02;95957.28;;;7.07;100.00
6829;BME280;17930;48.592;8.868;2024-03-23T03:28:29;95948.06;;;7.24;100.00
6829;BME280;17930;48.592;8.868;2024-03-23T03:30:56;95938.78;;;7.18;100.00
6829;BME280;17930;48.592;8.868;2024-03-23T03:33:25;95928.09;;;7.24;100.00
6829;BME280;17930;48.592;8.868;2024-03-23T03:35:51;95923.97;;;7.23;100.00
6829;BME280;17930;48.592;8.868;2024-03-23T03:38:18;95913.72;;;7.42;100.00
6829;BME280;17930;48.592;8.868;2024-03-23T03:40:44;95917.00;;;7.52;100.00
6829;BME280;17930;48.592;8.868;2024-03-23T03:43:12;95911.50;;;7.25;100.00
6829;BME280;17930;48.592;8.868;2024-03-23T03:45:38;95910.63;;;7.02;100.00
6829;BME280;17930;48.592;8.868;2024-03-23T03:48:05;95897.19;;;6.95;100.00
6829;BME280;17930;48.592;8.868;2024-03-23T03:50:32;95884.28;;;6.90;100.00
6829;BME280;17930;48.592;8.868;2024-03-23T03:52:59;95882.13;;;7.02;100.00
6829;BME280;17930;48.592;8.868;2024-03-23T03:55:25;95887.09;;;6.93;100.00
6829;BME280;17930;48.592;8.868;2024-03-23T03:57:51;95878.84;;;6.86;100.00
6829;BME280;17930;48.592;8.868;2024-03-23T04:00:17;95879.06;;;6.95;100.00
6829;BME280;17930;48.592;8.868;2024-03-23T04:02:44;95872.53;;;7.02;100.00
6829;BME280;17930;48.592;8.868;2024-03-23T04:05:10;95877.38;;;7.13;100.00
6829;BME280;17930;48.592;8.868;2024-03-23T04:07:42;95868.44;;;7.29;100.00
6829;BME280;17930;48.592;8.868;2024-03-23T04:10:08;95860.66;;;7.58;100.00
6829;BME280;17930;48.592;8.868;2024-03-23T04:12:35;95849.59;;;7.47;100.00
6829;BME280;17930;48.592;8.868;2024-03-23T04:15:00;95837.78;;;7.36;100.00
6829;BME280;17930;48.592;8.868;2024-03-23T04:17:29;95836.75;;;7.32;100.00
6829;BME280;17930;48.592;8.868;2024-03-23T04:19:57;95826.28;;;7.14;100.00
6829;BME280;17930;48.592;8.868;2024-03-23T04:22:24;95829.50;;;7.01;100.00
6829;BME280;17930;48.592;8.868;2024-03-23T04:24:54;95829.34;;;6.88;100.00
6829;BME280;17930;48.592;8.868;2024-03-23T04:27:21;95820.69;;;6.69;100.00
6829;BME280;17930;48.592;8.868;2024-03-23T04:29:51;95819.75;;;6.55;100.00
6829;BME280;17930;48.592;8.868;2024-03-23T04:32:19;95822.44;;;6.40;100.00
6829;BME280;17930;48.592;8.868;2024-03-23T04:34:45;95820.25;;;6.90;100.00
6829;BME280;17930;48.592;8.868;2024-03-23T04:37:11;95812.38;;;7.33;100.00
6829;BME280;17930;48.592;8.868;2024-03-23T04:39:38;95813.91;;;7.34;100.00
6829;BME280;17930;48.592;8.868;2024-03-23T04:42:07;95841.31;;;7.45;100.00
6829;BME280;17930;48.592;8.868;2024-03-23T04:44:33;95866.84;;;7.62;100.00
6829;BME280;17930;48.592;8.868;2024-03-23T04:47:00;95885.19;;;7.70;100.00
6829;BME280;17930;48.592;8.868;2024-03-23T04:49:27;95874.16;;;7.83;100.00
6829;BME280;17930;48.592;8.868;2024-03-23T04:51:54;95845.53;;;7.88;100.00
6829;BME280;17930;48.592;8.868;2024-03-23T04:54:21;95845.66;;;8.01;100.00
6829;BME280;17930;48.592;8.868;2024-03-23T04:56:47;95858.78;;;8.10;100.00
6829;BME280;17930;48.592;8.868;2024-03-23T04:59:14;95867.25;;;8.43;100.00
6829;BME280;17930;48.592;8.868;2024-03-23T05:01:41;95874.84;;;8.76;100.00
6829;BME280;17930;48.592;8.868;2024-03-23T05:04:08;95887.97;;;9.03;100.00
6829;BME280;17930;48.592;8.868;2024-03-23T05:06:34;95884.34;;;9.18;100.00
6829;BME280;17930;48.592;8.868;2024-03-23T05:09:00;95881.97;;;9.21;100.00
6829;BME280;17930;48.592;8.868;2024-03-23T05:11:28;95879.44;;;9.16;100.00
6829;BME280;17930;48.592;8.868;2024-03-23T05:13:54;95885.41;;;9.17;100.00
6829;BME280;17930;48.592;8.868;2024-03-23T05:16:22;95884.88;;;9.19;100.00
6829;BME280;17930;48.592;8.868;2024-03-23T05:18:48;95892.09;;;9.22;100.00
6829;BME280;17930;48.592;8.868;2024-03-23T05:21:14;95899.91;;;9.22;100.00
6829;BME280;17930;48.592;8.868;2024-03-23T05:23:40;95916.28;;;9.23;100.00
6829;BME280;17930;48.592;8.868;2024-03-23T05:26:08;95922.81;;;9.20;100.00
6829;BME280;17930;48.592;8.868;2024-03-23T05:28:35;95938.97;;;9.18;100.00
6829;BME280;17930;48.592;8.868;2024-03-23T05:31:02;95944.75;;;9.15;100.00
6829;BME280;17930;48.592;8.868;2024-03-23T05:33:29;95947.44;;;9.10;100.00
6829;BME280;17930;48.592;8.868;2024-03-23T05:35:56;95960.97;;;9.07;100.00
6829;BME280;17930;48.592;8.868;2024-03-23T05:38:23;95964.56;;;9.11;100.00
6829;BME280;17930;48.592;8.868;2024-03-23T05:40:53;95963.31;;;9.08;100.00
6829;BME280;17930;48.592;8.868;2024-03-23T05:43:19;95963.59;;;9.07;100.00
6829;BME280;17930;48.592;8.868;2024-03-23T05:45:53;95959.47;;;9.06;100.00
6829;BME280;17930;48.592;8.868;2024-03-23T05:48:18;95948.53;;;9.04;100.00
6829;BME280;17930;48.592;8.868;2024-03-23T05:50:46;95966.59;;;8.95;100.00
6829;BME280;17930;48.592;8.868;2024-03-23T05:53:12;95973.91;;;8.93;100.00
6829;BME280;17930;48.592;8.868;2024-03-23T05:55:39;95977.28;;;8.94;100.00
6829;BME280;17930;48.592;8.868;2024-03-23T05:58:05;95985.66;;;8.91;100.00
6829;BME280;17930;48.592;8.868;2024-03-23T06:00:32;95996.41;;;8.84;100.00
6829;BME280;17930;48.592;8.868;2024-03-23T06:02:57;95986.88;;;8.75;100.00
6829;BME280;17930;48.592;8.868;2024-03-23T06:05:24;95996.84;;;8.68;100.00
6829;BME280;17930;48.592;8.868;2024-03-23T06:07:51;95989.94;;;8.59;100.00
6829;BME280;17930;48.592;8.868;2024-03-23T06:10:18;95981.94;;;8.55;100.00
6829;BME280;17930;48.592;8.868;2024-03-23T06:12:45;95983.59;;;8.46;100.00
6829;BME280;17930;48.592;8.868;2024-03-23T06:15:12;95975.91;;;8.36;100.00
6829;BME280;17930;48.592;8.868;2024-03-23T06:17:38;95982.16;;;8.35;100.00
6829;BME280;17930;48.592;8.868;2024-03-23T06:20:06;96001.44;;;8.29;100.00
6829;BME280;17930;48.592;8.868;2024-03-23T06:22:32;96001.81;;;8.18;100.00
6829;BME280;17930;48.592;8.868;2024-03-23T06:25:00;96009.88;;;8.12;100.00
6829;BME280;17930;48.592;8.868;2024-03-23T06:27:25;96008.09;;;8.12;100.00
6829;BME280;17930;48.592;8.868;2024-03-23T06:29:52;96024.97;;;8.10;100.00
6829;BME280;17930;48.592;8.868;2024-03-23T06:32:18;96027.31;;;8.11;100.00
6829;BME280;17930;48.592;8.868;2024-03-23T06:34:45;96021.81;;;8.17;100.00
6829;BME280;17930;48.592;8.868;2024-03-23T06:37:11;96031.69;;;8.16;100.00
6829;BME280;17930;48.592;8.868;2024-03-23T06:39:38;96042.81;;;8.21;100.00
6829;BME280;17930;48.592;8.868;2024-03-23T06:42:05;96045.69;;;8.19;100.00
6829;BME280;17930;48.592;8.868;2024-03-23T06:44:33;96063.81;;;8.24;100.00
6829;BME280;17930;48.592;8.868;2024-03-23T06:46:59;96064.38;;;8.21;100.00
6829;BME280;17930;48.592;8.868;2024-03-23T06:49:26;96072.13;;;8.26;100.00
6829;BME280;17930;48.592;8.868;2024-03-23T06:51:52;96088.69;;;8.30;100.00
6829;BME280;17930;48.592;8.868;2024-03-23T06:54:19;96064.78;;;8.33;100.00
6829;BME280;17930;48.592;8.868;2024-03-23T06:56:45;96074.56;;;8.41;100.00
6829;BME280;17930;48.592;8.868;2024-03-23T06:59:13;96085.97;;;8.45;100.00
6829;BME280;17930;48.592;8.868;2024-03-23T07:01:38;96085.72;;;8.42;100.00
6829;BME280;17930;48.592;8.868;2024-03-23T07:04:05;96089.75;;;8.29;100.00
6829;BME280;17930;48.592;8.868;2024-03-23T07:06:31;96106.38;;;8.28;100.00
6829;BME280;17930;48.592;8.868;2024-03-23T07:08:58;96106.75;;;8.45;100.00
6829;BME280;17930;48.592;8.868;2024-03-23T07:11:24;96094.63;;;8.64;100.00
6829;BME280;17930;48.592;8.868;2024-03-23T07:13:51;96111.09;;;8.83;100.00
6829;BME280;17930;48.592;8.868;2024-03-23T07:16:19;96107.94;;;8.86;100.00
6829;BME280;17930;48.592;8.868;2024-03-23T07:18:46;96113.56;;;8.93;100.00
6829;BME280;17930;48.592;8.868;2024-03-23T07:21:12;96122.09;;;9.21;100.00
6829;BME280;17930;48.592;8.868;2024-03-23T07:23:41;96134.94;;;9.13;100.00
6829;BME280;17930;48.592;8.868;2024-03-23T07:26:09;96119.41;;;8.80;100.00
6829;BME280;17930;48.592;8.868;2024-03-23T07:28:36;96118.88;;;8.83;100.00
6829;BME280;17930;48.592;8.868;2024-03-23T07:31:03;96126.47;;;9.44;100.00
6829;BME280;17930;48.592;8.868;2024-03-23T07:33:32;96130.34;;;9.28;100.00
6829;BME280;17930;48.592;8.868;2024-03-23T07:35:59;96137.56;;;9.31;100.00
6829;BME280;17930;48.592;8.868;2024-03-23T07:38:26;96148.66;;;9.18;100.00
6829;BME280;17930;48.592;8.868;2024-03-23T07:40:52;96147.31;;;8.74;100.00
6829;BME280;17930;48.592;8.868;2024-03-23T07:43:21;96147.78;;;8.48;100.00
6829;BME280;17930;48.592;8.868;2024-03-23T07:45:51;96157.44;;;8.43;100.00
6829;BME280;17930;48.592;8.868;2024-03-23T07:48:18;96170.59;;;8.56;100.00
6829;BME280;17930;48.592;8.868;2024-03-23T07:50:45;96192.38;;;8.60;100.00
6829;BME280;17930;48.592;8.868;2024-03-23T07:53:12;96203.66;;;8.13;100.00
6829;BME280;17930;48.592;8.868;2024-03-23T07:55:38;96208.56;;;8.14;100.00
6829;BME280;17930;48.592;8.868;2024-03-23T07:58:04;96209.63;;;8.08;100.00
6829;BME280;17930;48.592;8.868;2024-03-23T08:00:31;96207.75;;;8.18;100.00
6829;BME280;17930;48.592;8.868;2024-03-23T08:02:57;96192.00;;;8.43;100.00
6829;BME280;17930;48.592;8.868;2024-03-23T08:05:26;96195.50;;;8.62;100.00
6829;BME280;17930;48.592;8.868;2024-03-23T08:07:53;96205.97;;;8.52;100.00
6829;BME280;17930;48.592;8.868;2024-03-23T08:10:19;96232.03;;;8.42;100.00
6829;BME280;17930;48.592;8.868;2024-03-23T08:12:46;96242.97;;;8.34;100.00
6829;BME280;17930;48.592;8.868;2024-03-23T08:15:11;96257.59;;;8.25;100.00
6829;BME280;17930;48.592;8.868;2024-03-23T08:17:38;96255.25;;;8.24;100.00
6829;BME280;17930;48.592;8.868;2024-03-23T08:20:05;96255.75;;;8.26;100.00
6829;BME280;17930;48.592;8.868;2024-03-23T08:22:33;96276.19;;;8.42;100.00
6829;BME280;17930;48.592;8.868;2024-03-23T08:25:01;96268.88;;;8.49;100.00
6829;BME280;17930;48.592;8.868;2024-03-23T08:27:29;96271.47;;;9.44;100.00
6829;BME280;17930;48.592;8.868;2024-03-23T08:29:54;96263.59;;;10.55;100.00
6829;BME280;17930;48.592;8.868;2024-03-23T08:32:24;96270.25;;;9.83;100.00
6829;BME280;17930;48.592;8.868;2024-03-23T08:34:50;96277.44;;;9.16;100.00
6829;BME280;17930;48.592;8.868;2024-03-23T08:37:16;96281.94;;;8.77;100.00
6829;BME280;17930;48.592;8.868;2024-03-23T08:39:43;96291.03;;;9.36;100.00
6829;BME280;17930;48.592;8.868;2024-03-23T08:42:11;96279.09;;;10.28;100.00
6829;BME280;17930;48.592;8.868;2024-03-23T08:44:37;96284.22;;;9.45;100.00
6829;BME280;17930;48.592;8.868;2024-03-23T08:47:04;96282.44;;;9.87;100.00
6829;BME280;17930;48.592;8.868;2024-03-23T08:49:30;96300.19;;;9.06;100.00
6829;BME280;17930;48.592;8.868;2024-03-23T08:51:57;96314.50;;;8.65;100.00
6829;BME280;17930;48.592;8.868;2024-03-23T08:54:23;96326.09;;;8.39;100.00
6829;BME280;17930;48.592;8.868;2024-03-23T08:56:52;96335.97;;;8.37;100.00
6829;BME280;17930;48.592;8.868;2024-03-23T08:59:19;96331.84;;;8.36;100.00
6829;BME280;17930;48.592;8.868;2024-03-23T09:01:46;96342.72;;;8.43;100.00
6829;BME280;17930;48.592;8.868;2024-03-23T09:04:12;96348.84;;;8.62;100.00
6829;BME280;17930;48.592;8.868;2024-03-23T09:06:39;96371.34;;;8.81;100.00
6829;BME280;17930;48.592;8.868;2024-03-23T09:09:04;96385.28;;;8.95;100.00
6829;BME280;17930;48.592;8.868;2024-03-23T09:11:31;96371.03;;;9.26;100.00
6829;BME280;17930;48.592;8.868;2024-03-23T09:13:57;96382.59;;;10.46;100.00
6829;BME280;17930;48.592;8.868;2024-03-23T09:16:25;96372.06;;;10.10;100.00
6829;BME280;17930;48.592;8.868;2024-03-23T09:18:52;96360.38;;;10.30;100.00
6829;BME280;17930;48.592;8.868;2024-03-23T09:21:19;96361.63;;;10.15;100.00
6829;BME280;17930;48.592;8.868;2024-03-23T09:23:44;96382.75;;;9.85;100.00
6829;BME280;17930;48.592;8.868;2024-03-23T09:26:12;96380.81;;;9.67;100.00
6829;BME280;17930;48.592;8.868;2024-03-23T09:28:38;96395.06;;;9.46;100.00
6829;BME280;17930;48.592;8.868;2024-03-23T09:31:04;96406.53;;;8.64;100.00
6829;BME280;17930;48.592;8.868;2024-03-23T09:33:32;96417.69;;;7.82;100.00
6829;BME280;17930;48.592;8.868;2024-03-23T09:36:02;96413.03;;;7.49;100.00
6829;BME280;17930;48.592;8.868;2024-03-23T09:38:29;96416.94;;;7.22;100.00
6829;BME280;17930;48.592;8.868;2024-03-23T09:40:58;96406.78;;;7.15;100.00
6829;BME280;17930;48.592;8.868;2024-03-23T09:43:24;96405.75;;;7.12;100.00
6829;BME280;17930;48.592;8.868;2024-03-23T09:45:53;96407.31;;;7.22;100.00
6829;BME280;17930;48.592;8.868;2024-03-23T09:48:19;96401.06;;;7.78;100.00
6829;BME280;17930;48.592;8.868;2024-03-23T09:50:47;96404.16;;;7.95;100.00
6829;BME280;17930;48.592;8.868;2024-03-23T09:53:14;96401.53;;;8.05;100.00
6829;BME280;17930;48.592;8.868;2024-03-23T09:55:43;96392.13;;;8.28;100.00
6829;BME280;17930;48.592;8.868;2024-03-23T09:58:12;96395.31;;;8.01;100.00
6829;BME280;17930;48.592;8.868;2024-03-23T10:00:41;96385.19;;;8.04;100.00
6829;BME280;17930;48.592;8.868;2024-03-23T10:03:07;96375.13;;;8.56;100.00
6829;BME280;17930;48.592;8.868;2024-03-23T10:05:36;96362.47;;;10.52;100.00
6829;BME280;17930;48.592;8.868;2024-03-23T10:08:17;96356.94;;;11.90;100.00
6829;BME280;17930;48.592;8.868;2024-03-23T10:10:45;96348.31;;;13.27;100.00
6829;BME280;17930;48.592;8.868;2024-03-23T10:13:24;96346.16;;;14.49;100.00
6829;BME280;17930;48.592;8.868;2024-03-23T10:15:55;96350.69;;;14.19;100.00
6829;BME280;17930;48.592;8.868;2024-03-23T10:18:25;96338.47;;;14.70;100.00
6829;BME280;17930;48.592;8.868;2024-03-23T10:21:06;96338.34;;;14.19;100.00
6829;BME280;17930;48.592;8.868;2024-03-23T10:23:35;96338.13;;;13.03;100.00
6829;BME280;17930;48.592;8.868;2024-03-23T10:26:17;96337.56;;;11.64;100.00
6829;BME280;17930;48.592;8.868;2024-03-23T10:29:01;96339.72;;;10.94;100.00
6829;BME280;17930;48.592;8.868;2024-03-23T10:31:33;96344.16;;;9.87;100.00
6829;BME280;17930;48.592;8.868;2024-03-23T10:34:02;96342.47;;;9.49;100.00
6829;BME280;17930;48.592;8.868;2024-03-23T10:36:29;96387.84;;;9.38;100.00
6829;BME280;17930;48.592;8.868;2024-03-23T10:38:57;96429.88;;;8.79;100.00
6829;BME280;17930;48.592;8.868;2024-03-23T10:41:26;96440.66;;;6.64;100.00
6829;BME280;17930;48.592;8.868;2024-03-23T10:43:53;96438.66;;;6.20;100.00
6829;BME280;17930;48.592;8.868;2024-03-23T10:46:20;96431.63;;;6.77;100.00
6829;BME280;17930;48.592;8.868;2024-03-23T10:48:46;96424.69;;;7.57;100.00
6829;BME280;17930;48.592;8.868;2024-03-23T10:51:14;96428.72;;;8.95;100.00
6829;BME280;17930;48.592;8.868;2024-03-23T10:53:40;96417.75;;;9.74;100.00
6829;BME280;17930;48.592;8.868;2024-03-23T10:56:11;96404.69;;;11.27;100.00
6829;BME280;17930;48.592;8.868;2024-03-23T10:58:39;96394.22;;;11.95;100.00
6829;BME280;17930;48.592;8.868;2024-03-23T11:01:07;96379.63;;;12.34;100.00
6829;BME280;17930;48.592;8.868;2024-03-23T11:03:37;96396.34;;;10.75;100.00
6829;BME280;17930;48.592;8.868;2024-03-23T11:06:05;96401.84;;;10.04;100.00
6829;BME280;17930;48.592;8.868;2024-03-23T11:08:33;96413.16;;;9.61;100.00
6829;BME280;17930;48.592;8.868;2024-03-23T11:11:21;96412.16;;;9.24;100.00
6829;BME280;17930;48.592;8.868;2024-03-23T11:13:49;96404.41;;;9.52;100.00
6829;BME280;17930;48.592;8.868;2024-03-23T11:16:17;96402.03;;;10.77;100.00
6829;BME280;17930;48.592;8.868;2024-03-23T11:18:46;96398.28;;;11.20;100.00
6829;BME280;17930;48.592;8.868;2024-03-23T11:21:51;96395.81;;;10.31;100.00
6829;BME280;17930;48.592;8.868;2024-03-23T11:24:19;96407.06;;;9.09;100.00
6829;BME280;17930;48.592;8.868;2024-03-23T11:26:47;96403.88;;;8.74;100.00
6829;BME280;17930;48.592;8.868;2024-03-23T11:29:15;96400.16;;;8.90;100.00
6829;BME280;17930;48.592;8.868;2024-03-23T11:31:46;96410.03;;;8.93;100.00
6829;BME280;17930;48.592;8.868;2024-03-23T11:34:12;96411.00;;;9.02;100.00
6829;BME280;17930;48.592;8.868;2024-03-23T11:36:38;96415.84;;;8.70;100.00
6829;BME280;17930;48.592;8.868;2024-03-23T11:39:11;96425.16;;;8.81;100.00
6829;BME280;17930;48.592;8.868;2024-03-23T11:41:47;96427.75;;;8.81;100.00
6829;BME280;17930;48.592;8.868;2024-03-23T11:44:17;96417.19;;;9.11;100.00
6829;BME280;17930;48.592;8.868;2024-03-23T11:46:44;96418.47;;;9.51;100.00
6829;BME280;17930;48.592;8.868;2024-03-23T11:49:23;96397.50;;;10.64;100.00
6829;BME280;17930;48.592;8.868;2024-03-23T11:51:51;96398.56;;;12.13;100.00
6829;BME280;17930;48.592;8.868;2024-03-23T11:54:20;96397.28;;;10.61;100.00
6829;BME280;17930;48.592;8.868;2024-03-23T11:57:07;96385.44;;;9.75;100.00
6829;BME280;17930;48.592;8.868;2024-03-23T11:59:34;96393.88;;;10.19;100.00
6829;BME280;17930;48.592;8.868;2024-03-23T12:02:06;96377.47;;;11.96;100.00
6829;BME280;17930;48.592;8.868;2024-03-23T12:04:32;96383.19;;;12.12;100.00
6829;BME280;17930;48.592;8.868;2024-03-23T12:07:11;96399.19;;;11.28;100.00
6829;BME280;17930;48.592;8.868;2024-03-23T12:09:38;96404.94;;;10.52;100.00
6829;BME280;17930;48.592;8.868;2024-03-23T12:12:08;96404.31;;;10.19;100.00
6829;BME280;17930;48.592;8.868;2024-03-23T12:14:34;96397.63;;;9.51;100.00
6829;BME280;17930;48.592;8.868;2024-03-23T12:17:08;96401.97;;;9.27;100.00
6829;BME280;17930;48.592;8.868;2024-03-23T12:19:34;96394.00;;;9.52;100.00
6829;BME280;17930;48.592;8.868;2024-03-23T12:22:02;96392.03;;;9.34;100.00
6829;BME280;17930;48.592;8.868;2024-03-23T12:24:29;96394.84;;;9.10;100.00
6829;BME280;17930;48.592;8.868;2024-03-23T12:26:59;96378.53;;;9.89;100.00
6829;BME280;17930;48.592;8.868;2024-03-23T12:29:28;96383.19;;;11.53;100.00
6829;BME280;17930;48.592;8.868;2024-03-23T12:31:55;96380.09;;;12.10;100.00
6829;BME280;17930;48.592;8.868;2024-03-23T12:34:21;96397.41;;;11.11;100.00
6829;BME280;17930;48.592;8.868;2024-03-23T12:36:48;96394.91;;;11.69;100.00
6829;BME280;17930;48.592;8.868;2024-03-23T12:39:13;96398.28;;;11.38;100.00
6829;BME280;17930;48.592;8.868;2024-03-23T12:41:40;96400.28;;;10.49;100.00
6829;BME280;17930;48.592;8.868;2024-03-23T12:44:06;96393.03;;;10.88;100.00
6829;BME280;17930;48.592;8.868;2024-03-23T12:46:35;96395.94;;;10.63;100.00
6829;BME280;17930;48.592;8.868;2024-03-23T12:49:00;96389.38;;;10.47;100.00
6829;BME280;17930;48.592;8.868;2024-03-23T12:51:28;96389.84;;;10.91;100.00
6829;BME280;17930;48.592;8.868;2024-03-23T12:53:53;96395.94;;;11.36;100.00
6829;BME280;17930;48.592;8.868;2024-03-23T12:56:20;96385.94;;;11.75;100.00
6829;BME280;17930;48.592;8.868;2024-03-23T12:58:46;96415.50;;;10.84;100.00
6829;BME280;17930;48.592;8.868;2024-03-23T13:01:16;96447.81;;;7.33;100.00
6829;BME280;17930;48.592;8.868;2024-03-23T13:03:46;96433.31;;;5.91;100.00
6829;BME280;17930;48.592;8.868;2024-03-23T13:06:12;96411.50;;;5.77;100.00
6829;BME280;17930;48.592;8.868;2024-03-23T13:08:39;96400.50;;;8.01;100.00
6829;BME280;17930;48.592;8.868;2024-03-23T13:11:07;96399.97;;;8.76;100.00
6829;BME280;17930;48.592;8.868;2024-03-23T13:13:34;96378.66;;;9.51;100.00
6829;BME280;17930;48.592;8.868;2024-03-23T13:16:00;96380.59;;;10.80;100.00
6829;BME280;17930;48.592;8.868;2024-03-23T13:18:26;96378.94;;;11.57;100.00
6829;BME280;17930;48.592;8.868;2024-03-23T13:20:54;96370.53;;;11.60;100.00
6829;BME280;17930;48.592;8.868;2024-03-23T13:23:19;96369.13;;;10.81;100.00
6829;BME280;17930;48.592;8.868;2024-03-23T13:25:50;96356.72;;;11.73;100.00
6829;BME280;17930;48.592;8.868;2024-03-23T13:28:15;96350.84;;;11.81;100.00
6829;BME280;17930;48.592;8.868;2024-03-23T13:30:49;96340.66;;;11.34;100.00
6829;BME280;17930;48.592;8.868;2024-03-23T13:33:15;96340.94;;;9.71;100.00
6829;BME280;17930;48.592;8.868;2024-03-23T13:35:49;96340.63;;;9.21;100.00
6829;BME280;17930;48.592;8.868;2024-03-23T13:38:16;96343.28;;;8.78;100.00
6829;BME280;17930;48.592;8.868;2024-03-23T13:40:50;96336.06;;;9.09;100.00
6829;BME280;17930;48.592;8.868;2024-03-23T13:43:17;96341.06;;;9.85;100.00
6829;BME280;17930;48.592;8.868;2024-03-23T13:45:43;96338.50;;;9.80;100.00
6829;BME280;17930;48.592;8.868;2024-03-23T13:48:10;96344.34;;;9.11;100.00
6829;BME280;17930;48.592;8.868;2024-03-23T13:50:35;96346.19;;;8.72;100.00
6829;BME280;17930;48.592;8.868;2024-03-23T13:53:02;96349.00;;;8.27;100.00
6829;BME280;17930;48.592;8.868;2024-03-23T13:55:30;96345.69;;;8.17;100.00
6829;BME280;17930;48.592;8.868;2024-03-23T13:57:57;96354.88;;;7.80;100.00
6829;BME280;17930;48.592;8.868;2024-03-23T14:00:23;96356.19;;;7.53;100.00
6829;BME280;17930;48.592;8.868;2024-03-23T14:02:50;96349.72;;;7.60;100.00